createdAt,value
2022-08-03T00:00:27.647Z,76485.31
2022-08-03T00:02:54.242Z,76469.41
2022-08-03T00:05:21.037Z,76475.38
2022-08-03T00:07:48.449Z,76477.38
2022-08-03T00:10:16.690Z,76479.34
2022-08-03T00:12:43.244Z,76491.28
2022-08-03T00:15:15.125Z,76483.31
2022-08-03T00:17:52.403Z,76495.25
2022-08-03T00:20:21.984Z,76487.28
2022-08-03T00:22:49.301Z,76495.25
2022-08-03T00:25:16.067Z,76501.22
2022-08-03T00:27:42.640Z,76495.25
2022-08-03T00:30:09.570Z,76505.19
2022-08-03T00:32:36.124Z,76501.22
2022-08-03T00:35:05.699Z,76505.19
2022-08-03T00:37:41.073Z,76507.16
2022-08-03T00:40:11.110Z,76511.16
2022-08-03T00:42:47.781Z,76505.19
2022-08-03T00:45:14.660Z,76513.13
2022-08-03T00:47:41.340Z,76513.13
2022-08-03T00:50:08.261Z,76521.09
2022-08-03T00:52:35.481Z,76513.13
2022-08-03T00:55:04.180Z,76515.13
2022-08-03T00:57:32.714Z,76513.13
2022-08-03T01:00:02.736Z,76511.16
2022-08-03T01:02:29.409Z,76511.16
2022-08-03T01:04:56.528Z,76513.13
2022-08-03T01:07:42.248Z,76523.06
2022-08-03T01:10:17.351Z,76515.13
2022-08-03T01:12:57.822Z,76519.09
2022-08-03T01:15:58.767Z,76509.16
2022-08-03T01:18:54.940Z,76523.06
2022-08-03T01:21:33.054Z,76515.13
2022-08-03T01:24:14.928Z,76511.16
2022-08-03T01:27:12.781Z,76509.16
2022-08-03T01:30:00.709Z,76509.16
2022-08-03T01:32:54.553Z,76499.22
2022-08-03T01:35:38.751Z,76507.16
2022-08-03T01:38:22.198Z,76501.22
2022-08-03T01:40:51.835Z,76503.19
2022-08-03T01:44:28.057Z,76499.22
2022-08-03T01:46:07.980Z,76495.25
2022-08-03T01:48:37.983Z,76491.28
2022-08-03T01:51:05.673Z,76483.31
2022-08-03T01:53:34.872Z,76481.34
2022-08-03T01:56:03.679Z,76469.41
2022-08-03T01:58:32.289Z,76469.41
2022-08-03T02:01:01.483Z,76463.44
2022-08-03T02:03:36.978Z,76451.53
2022-08-03T02:07:00.579Z,76451.53
2022-08-03T02:08:53.689Z,76445.56
2022-08-03T02:11:20.375Z,76443.59
2022-08-03T02:13:49.751Z,76445.56
2022-08-03T02:16:18.981Z,76451.53
2022-08-03T02:18:48.014Z,76449.53
2022-08-03T02:21:55.898Z,76447.56
2022-08-03T02:24:04.470Z,76435.63
2022-08-03T02:26:31.927Z,76425.69
2022-08-03T02:29:05.191Z,76425.69
2022-08-03T02:31:34.503Z,76413.78
2022-08-03T02:34:04.599Z,76419.72
2022-08-03T02:36:35.000Z,76415.75
2022-08-03T02:39:03.286Z,76409.81
2022-08-03T02:41:34.988Z,76403.84
2022-08-03T02:44:07.547Z,76401.84
2022-08-03T02:46:39.691Z,76395.91
2022-08-03T02:49:40.654Z,76389.94
2022-08-03T02:51:55.913Z,76395.91
2022-08-03T02:54:26.600Z,76383.97
2022-08-03T02:56:56.018Z,76387.94
2022-08-03T02:59:23.894Z,76387.94
2022-08-03T03:01:51.539Z,76383.97
2022-08-03T03:04:19.167Z,76389.94
2022-08-03T03:06:48.962Z,76389.94
2022-08-03T03:09:16.849Z,76395.91
2022-08-03T03:11:44.621Z,76409.81
2022-08-03T03:14:13.472Z,76413.78
2022-08-03T03:16:42.009Z,76419.72
2022-08-03T03:19:11.377Z,76423.72
2022-08-03T03:21:38.356Z,76427.69
2022-08-03T03:24:06.595Z,76425.69
2022-08-03T03:26:33.809Z,76425.69
2022-08-03T03:29:02.568Z,76419.72
2022-08-03T03:31:29.764Z,76419.72
2022-08-03T03:33:58.500Z,76411.78
2022-08-03T03:36:25.248Z,76411.78
2022-08-03T03:38:51.795Z,76413.78
2022-08-03T03:41:20.812Z,76405.81
2022-08-03T03:43:49.048Z,76411.78
2022-08-03T03:46:16.485Z,76403.84
2022-08-03T03:48:44.128Z,76403.84
2022-08-03T03:51:10.963Z,76399.88
2022-08-03T03:53:37.543Z,76405.81
2022-08-03T03:56:04.379Z,76405.81
2022-08-03T03:58:32.769Z,76401.84
2022-08-03T04:01:00.160Z,76397.88
2022-08-03T04:03:27.051Z,76387.94
2022-08-03T04:06:12.279Z,76399.88
2022-08-03T04:09:18.732Z,76399.88
2022-08-03T04:11:52.946Z,76397.88
2022-08-03T04:14:24.451Z,76401.84
2022-08-03T04:16:56.617Z,76407.81
2022-08-03T04:19:38.351Z,76407.81
2022-08-03T04:22:09.958Z,76421.72
2022-08-03T04:25:03.357Z,76417.75
2022-08-03T04:27:34.856Z,76429.66
2022-08-03T04:30:04.555Z,76427.69
2022-08-03T04:32:31.848Z,76435.63
2022-08-03T04:34:58.752Z,76433.66
2022-08-03T04:37:38.326Z,76437.63
2022-08-03T04:40:09.600Z,76433.66
2022-08-03T04:42:37.753Z,76433.66
2022-08-03T04:45:05.586Z,76431.66
2022-08-03T04:47:37.727Z,76431.66
2022-08-03T04:50:11.895Z,76429.66
2022-08-03T04:52:39.890Z,76423.72
2022-08-03T04:55:06.945Z,76421.72
2022-08-03T04:57:33.484Z,76411.78
2022-08-03T05:00:02.951Z,76407.81
2022-08-03T05:02:31.827Z,76397.88
2022-08-03T05:04:58.780Z,76387.94
2022-08-03T05:07:25.509Z,76378.00
2022-08-03T05:10:01.549Z,76364.09
2022-08-03T05:12:32.920Z,76354.16
2022-08-03T05:15:00.584Z,76336.28
2022-08-03T05:17:27.540Z,76326.34
2022-08-03T05:19:54.736Z,76318.41
2022-08-03T05:22:21.976Z,76308.47
2022-08-03T05:24:49.208Z,76312.44
2022-08-03T05:27:21.555Z,76304.50
2022-08-03T05:29:50.339Z,76296.53
2022-08-03T05:32:18.079Z,76288.59
2022-08-03T05:34:45.228Z,76282.63
2022-08-03T05:37:11.811Z,76278.66
2022-08-03T05:39:38.484Z,76262.75
2022-08-03T05:42:05.054Z,76252.81
2022-08-03T05:44:32.223Z,76238.91
2022-08-03T05:46:59.421Z,76232.94
2022-08-03T05:49:26.106Z,76227.00
2022-08-03T05:51:59.792Z,76227.00
2022-08-03T05:54:56.077Z,76221.03
2022-08-03T05:57:26.141Z,76187.25
2022-08-03T05:59:54.691Z,76169.38
2022-08-03T06:02:26.768Z,76157.44
2022-08-03T06:04:53.534Z,76141.56
2022-08-03T06:07:20.162Z,76129.63
2022-08-03T06:10:34.171Z,76121.69
2022-08-03T06:12:36.107Z,76095.84
2022-08-03T06:17:30.571Z,76060.09
2022-08-03T06:20:05.873Z,76052.16
2022-08-03T06:22:33.845Z,76046.19
2022-08-03T06:25:05.074Z,76046.19
2022-08-03T06:27:37.199Z,76036.25
2022-08-03T06:30:05.158Z,76028.31
2022-08-03T06:32:31.716Z,76016.38
2022-08-03T06:34:58.243Z,76006.44
2022-08-03T06:37:24.989Z,75998.50
2022-08-03T06:39:51.542Z,75998.50
2022-08-03T06:42:18.296Z,75996.50
2022-08-03T06:44:47.347Z,75992.53
2022-08-03T06:47:13.892Z,75998.50
2022-08-03T06:49:41.563Z,75986.56
2022-08-03T06:52:08.173Z,75972.66
2022-08-03T06:54:35.741Z,75944.84
2022-08-03T06:57:02.476Z,75919.03
2022-08-03T07:00:08.644Z,75903.13
2022-08-03T07:02:19.308Z,75883.25
2022-08-03T07:04:49.773Z,75871.34
2022-08-03T07:07:17.443Z,75859.41
2022-08-03T07:09:57.839Z,75843.53
2022-08-03T07:12:26.247Z,75819.69
2022-08-03T07:14:56.683Z,75813.72
2022-08-03T07:17:27.000Z,75785.91
2022-08-03T07:19:53.961Z,75762.06
2022-08-03T07:22:20.520Z,75748.16
2022-08-03T07:24:47.817Z,75726.31
2022-08-03T07:27:16.348Z,75712.41
2022-08-03T07:29:43.001Z,75700.47
2022-08-03T07:32:09.620Z,75680.63
2022-08-03T07:34:36.179Z,75668.69
2022-08-03T07:37:02.731Z,75660.75
2022-08-03T07:39:29.277Z,75640.88
2022-08-03T07:41:55.880Z,75626.97
2022-08-03T07:44:22.484Z,75601.16
2022-08-03T07:46:50.705Z,75595.19
2022-08-03T07:49:18.612Z,75571.34
2022-08-03T07:51:45.251Z,75553.47
2022-08-03T07:54:11.957Z,75535.59
2022-08-03T07:56:39.157Z,75527.66
2022-08-03T07:59:05.919Z,75513.75
2022-08-03T08:01:35.903Z,75497.84
2022-08-03T08:04:02.495Z,75485.94
2022-08-03T08:06:29.060Z,75481.97
2022-08-03T08:08:59.509Z,75454.16
2022-08-03T08:11:26.096Z,75428.31
2022-08-03T08:13:52.685Z,75426.34
2022-08-03T08:16:19.201Z,75412.44
2022-08-03T08:18:45.784Z,75398.53
2022-08-03T08:21:12.369Z,75382.63
2022-08-03T08:23:42.298Z,75374.69
2022-08-03T08:26:10.528Z,75358.78
2022-08-03T08:28:37.058Z,75354.81
2022-08-03T08:31:03.775Z,75319.06
2022-08-03T08:33:47.851Z,75315.09
2022-08-03T08:36:16.920Z,75301.19
2022-08-03T08:38:45.134Z,75285.28
2022-08-03T08:41:13.460Z,75279.34
2022-08-03T08:43:40.159Z,75265.44
2022-08-03T08:46:10.610Z,75243.59
2022-08-03T08:48:41.794Z,75225.69
2022-08-03T08:51:09.848Z,75199.88
2022-08-03T08:53:38.414Z,75201.88
2022-08-03T08:56:05.855Z,75205.84
2022-08-03T08:58:38.723Z,75193.91
2022-08-03T09:01:05.765Z,75189.94
2022-08-03T09:03:35.314Z,75180.00
2022-08-03T09:06:02.785Z,75182.00
2022-08-03T09:08:31.015Z,75174.06
2022-08-03T09:10:58.020Z,75154.19
2022-08-03T09:13:25.052Z,75142.28
2022-08-03T09:16:16.247Z,75126.38
2022-08-03T09:18:45.239Z,75104.53
2022-08-03T09:21:34.957Z,75078.72
2022-08-03T09:24:05.872Z,75058.84
2022-08-03T09:26:38.002Z,75064.81
2022-08-03T09:29:14.326Z,75037.00
2022-08-03T09:31:44.638Z,75035.00
2022-08-03T09:34:17.400Z,75013.16
2022-08-03T09:36:48.962Z,75001.25
2022-08-03T09:39:40.297Z,74983.38
2022-08-03T09:42:23.936Z,74971.44
2022-08-03T09:44:51.879Z,74963.50
2022-08-03T09:47:28.859Z,74951.59
2022-08-03T09:50:09.091Z,74943.66
2022-08-03T09:52:52.361Z,74933.72
2022-08-03T09:55:23.612Z,74925.78
2022-08-03T09:58:11.505Z,74911.88
2022-08-03T10:00:58.047Z,74890.00
2022-08-03T10:03:26.274Z,74882.06
2022-08-03T10:05:57.445Z,74870.16
2022-08-03T10:08:26.122Z,74848.31
2022-08-03T10:10:58.720Z,74848.31
2022-08-03T10:13:25.509Z,74826.47
2022-08-03T10:16:22.503Z,74848.31
2022-08-03T10:18:38.830Z,74822.50
2022-08-03T10:21:10.532Z,74802.63
2022-08-03T10:23:39.975Z,74794.69
2022-08-03T10:26:11.401Z,74780.78
2022-08-03T10:28:45.064Z,74774.81
2022-08-03T10:31:14.253Z,74762.91
2022-08-03T10:33:51.983Z,74770.84
2022-08-03T10:36:23.782Z,74745.03
2022-08-03T10:38:53.273Z,74729.13
2022-08-03T10:41:31.128Z,74711.25
2022-08-03T10:44:09.973Z,74711.25
2022-08-03T10:46:44.477Z,74687.44
2022-08-03T10:49:16.100Z,74673.53
2022-08-03T10:51:47.432Z,74667.56
2022-08-03T10:55:07.418Z,74685.44
2022-08-03T10:57:58.315Z,74699.34
2022-08-03T11:00:27.537Z,74713.25
2022-08-03T11:03:16.595Z,74677.50
2022-08-03T11:05:49.169Z,74667.56
2022-08-03T11:08:24.867Z,74655.66
2022-08-03T11:10:55.353Z,74687.44
2022-08-03T11:13:25.040Z,74665.59
2022-08-03T11:16:01.697Z,74649.69
2022-08-03T11:18:29.673Z,74631.81
2022-08-03T11:20:58.627Z,74611.97
2022-08-03T11:24:03.490Z,74615.94
2022-08-03T11:26:29.755Z,74647.72
2022-08-03T11:29:30.200Z,74643.75
2022-08-03T11:31:57.167Z,74631.81
2022-08-03T11:34:24.663Z,74629.84
2022-08-03T11:37:24.586Z,74639.75
2022-08-03T11:39:54.925Z,74633.81
2022-08-03T11:42:24.733Z,74594.09
2022-08-03T11:44:52.789Z,74568.28
2022-08-03T11:47:20.835Z,74576.22
2022-08-03T11:49:48.575Z,74566.28
2022-08-03T11:52:16.316Z,74536.50
2022-08-03T11:54:43.486Z,74558.34
2022-08-03T11:57:10.332Z,74522.59
2022-08-03T11:59:38.770Z,74522.59
2022-08-03T12:02:16.189Z,74534.50
2022-08-03T12:04:58.461Z,74546.41
2022-08-03T12:08:03.273Z,74518.63
2022-08-03T12:10:15.663Z,74510.66
2022-08-03T12:12:46.266Z,74500.75
2022-08-03T12:15:13.555Z,74482.88
2022-08-03T12:17:41.614Z,74498.75
2022-08-03T12:20:10.447Z,74512.66
2022-08-03T12:22:39.310Z,74540.47
2022-08-03T12:25:07.776Z,74522.59
2022-08-03T12:27:34.820Z,74498.75
2022-08-03T12:30:02.575Z,74488.81
2022-08-03T12:32:31.173Z,74486.84
2022-08-03T12:35:01.232Z,74470.94
2022-08-03T12:37:29.356Z,74443.16
2022-08-03T12:40:09.412Z,74419.31
2022-08-03T12:42:39.198Z,74409.38
2022-08-03T12:45:28.745Z,74409.38
2022-08-03T12:47:56.572Z,74393.50
2022-08-03T12:50:27.329Z,74385.56
2022-08-03T12:52:54.358Z,74405.41
2022-08-03T12:55:22.239Z,74391.53
2022-08-03T12:57:49.149Z,74375.63
2022-08-03T13:00:29.111Z,74357.75
2022-08-03T13:03:39.718Z,74363.72
2022-08-03T13:05:55.677Z,74383.56
2022-08-03T13:08:24.735Z,74379.59
2022-08-03T13:10:52.181Z,74361.72
2022-08-03T13:13:20.819Z,74377.63
2022-08-03T13:15:48.123Z,74373.66
2022-08-03T13:18:16.757Z,74373.66
2022-08-03T13:20:44.382Z,74413.38
2022-08-03T13:23:21.943Z,74385.56
2022-08-03T13:25:55.221Z,74401.44
2022-08-03T13:28:23.054Z,74423.28
2022-08-03T13:30:49.720Z,74453.09
2022-08-03T13:33:16.380Z,74431.22
2022-08-03T13:35:42.984Z,74461.03
2022-08-03T13:38:09.503Z,74449.09
2022-08-03T13:40:41.821Z,74437.19
2022-08-03T13:43:08.784Z,74419.31
2022-08-03T13:45:35.400Z,74397.47
2022-08-03T13:48:02.069Z,74383.56
2022-08-03T13:50:28.611Z,74371.66
2022-08-03T13:52:55.169Z,74349.81
2022-08-03T13:55:21.778Z,74335.91
2022-08-03T13:58:02.873Z,74316.06
2022-08-03T14:00:35.331Z,74351.81
2022-08-03T14:03:13.215Z,74361.72
2022-08-03T14:05:41.818Z,74357.75
2022-08-03T14:08:08.368Z,74377.63
2022-08-03T14:10:37.440Z,74373.66
2022-08-03T14:13:04.512Z,74357.75
2022-08-03T14:15:31.290Z,74337.91
2022-08-03T14:17:58.787Z,74308.09
2022-08-03T14:20:36.918Z,74278.31
2022-08-03T14:23:06.832Z,74248.53
2022-08-03T14:25:43.526Z,74246.56
2022-08-03T14:28:18.938Z,74216.75
2022-08-03T14:30:46.162Z,74220.72
2022-08-03T14:33:12.721Z,74194.91
2022-08-03T14:35:39.312Z,74234.63
2022-08-03T14:38:06.056Z,74250.53
2022-08-03T14:40:32.690Z,74250.53
2022-08-03T14:42:59.214Z,74234.63
2022-08-03T14:45:25.781Z,74200.88
2022-08-03T14:50:33.283Z,74194.91
2022-08-03T14:50:43.130Z,74169.09
2022-08-03T14:53:12.495Z,74121.44
2022-08-03T14:55:50.648Z,73980.47
2022-08-03T14:58:27.443Z,73873.22
2022-08-03T15:00:55.403Z,73811.69
2022-08-03T15:03:24.792Z,73553.56
2022-08-03T15:05:56.466Z,73347.09
2022-08-03T15:08:24.918Z,73073.13
2022-08-03T15:10:52.043Z,73092.97
2022-08-03T15:13:19.901Z,73110.84
2022-08-03T15:15:46.900Z,72959.97
2022-08-03T15:18:13.432Z,72898.44
2022-08-03T15:20:44.855Z,72926.22
2022-08-03T15:23:13.411Z,73001.66
2022-08-03T15:26:32.048Z,72959.97
2022-08-03T15:28:26.753Z,73001.66
2022-08-03T15:30:53.315Z,73100.91
2022-08-03T15:33:20.217Z,73241.88
2022-08-03T15:35:47.646Z,73515.84
2022-08-03T15:38:14.407Z,73621.06
2022-08-03T15:40:41.683Z,73730.28
2022-08-03T15:43:08.716Z,73762.03
2022-08-03T15:45:36.259Z,73692.53
2022-08-03T15:48:05.098Z,73561.50
2022-08-03T15:50:31.742Z,73656.81
2022-08-03T15:52:58.278Z,73585.34
2022-08-03T15:55:24.989Z,73605.19
2022-08-03T15:59:10.877Z,73575.41
2022-08-03T16:00:39.279Z,73766.00
2022-08-03T16:03:06.013Z,73897.06
2022-08-03T16:05:32.803Z,74000.31
2022-08-03T16:08:04.258Z,74042.00
2022-08-03T16:10:32.569Z,74135.34
2022-08-03T16:13:00.105Z,74159.16
2022-08-03T16:15:27.043Z,74208.81
2022-08-03T16:17:53.673Z,74194.91
2022-08-03T16:20:34.503Z,74194.91
2022-08-03T16:23:10.846Z,74202.84
2022-08-03T16:25:40.569Z,74194.91
2022-08-03T16:28:13.404Z,74204.84
2022-08-03T16:30:42.950Z,74222.72
2022-08-03T16:33:09.920Z,74250.53
2022-08-03T16:35:36.605Z,74308.09
2022-08-03T16:38:09.218Z,74292.22
2022-08-03T16:40:36.889Z,74306.13
2022-08-03T16:43:18.516Z,74325.97
2022-08-03T16:45:48.671Z,74345.84
2022-08-03T16:48:16.367Z,74357.75
2022-08-03T16:50:44.244Z,74359.75
2022-08-03T16:53:12.804Z,74373.66
2022-08-03T16:55:53.226Z,74369.66
2022-08-03T16:58:24.428Z,74367.69
2022-08-03T17:01:24.818Z,74405.41
2022-08-03T17:04:04.611Z,74405.41
2022-08-03T17:06:37.229Z,74405.41
2022-08-03T17:09:10.843Z,74417.34
2022-08-03T17:11:46.383Z,74413.38
2022-08-03T17:14:14.905Z,74433.22
2022-08-03T17:16:45.137Z,74433.22
2022-08-03T17:19:21.719Z,74445.13
2022-08-03T17:21:59.739Z,74455.06
2022-08-03T17:24:26.520Z,74472.94
2022-08-03T17:26:55.083Z,74488.81
2022-08-03T17:29:25.157Z,74496.78
2022-08-03T17:31:52.930Z,74506.69
2022-08-03T17:34:20.866Z,74514.66
2022-08-03T17:37:27.394Z,74538.47
2022-08-03T17:39:58.208Z,74560.31
2022-08-03T17:42:30.009Z,74578.19
2022-08-03T17:45:02.306Z,74606.00
2022-08-03T17:47:42.529Z,74613.94
2022-08-03T17:50:24.211Z,74637.78
2022-08-03T17:53:00.952Z,74651.69
2022-08-03T17:55:52.026Z,74671.53
2022-08-03T17:58:25.535Z,74691.41
2022-08-03T18:01:57.373Z,74715.25
2022-08-03T18:04:11.076Z,74725.16
2022-08-03T18:06:56.368Z,74735.09
2022-08-03T18:10:04.314Z,74758.94
2022-08-03T18:12:51.964Z,74776.81
2022-08-03T18:15:25.348Z,74786.75
2022-08-03T18:17:55.393Z,74786.75
2022-08-03T18:20:34.658Z,74812.56
2022-08-03T18:23:10.284Z,74836.38
2022-08-03T18:25:45.263Z,74850.28
2022-08-03T18:28:18.746Z,74872.13
2022-08-03T18:30:54.451Z,74888.03
2022-08-03T18:34:19.531Z,74905.91
2022-08-03T18:36:11.325Z,74929.75
2022-08-03T18:38:47.469Z,74943.66
2022-08-03T18:41:20.694Z,74957.56
2022-08-03T18:44:07.155Z,74973.44
2022-08-03T18:46:53.724Z,74989.34
2022-08-03T18:49:20.223Z,74999.25
2022-08-03T18:51:54.968Z,75015.16
2022-08-03T18:54:48.909Z,75029.06
2022-08-03T18:57:38.137Z,75038.97
2022-08-03T19:03:12.243Z,75074.75
2022-08-03T19:06:06.363Z,75088.66
2022-08-03T19:08:50.329Z,75100.56
2022-08-03T19:12:26.016Z,75114.47
2022-08-03T19:14:23.168Z,75126.38
2022-08-03T19:17:04.751Z,75148.22
2022-08-03T19:19:44.388Z,75168.09
2022-08-03T19:22:12.801Z,75191.94
2022-08-03T19:24:45.376Z,75205.84
2022-08-03T19:27:13.536Z,75217.75
2022-08-03T19:29:58.167Z,75235.63
2022-08-03T19:32:32.486Z,75241.59
2022-08-03T19:35:01.177Z,75253.50
2022-08-03T19:37:38.135Z,75265.44
2022-08-03T19:40:10.692Z,75281.31
2022-08-03T19:42:43.253Z,75285.28
2022-08-03T19:45:14.693Z,75299.19
2022-08-03T19:48:13.336Z,75309.13
2022-08-03T19:50:44.438Z,75327.00
2022-08-03T19:53:13.172Z,75334.97
2022-08-03T19:55:48.952Z,75344.88
2022-08-03T19:58:17.525Z,75356.81
2022-08-03T20:00:51.052Z,75366.75
2022-08-03T20:03:21.854Z,75380.66
2022-08-03T20:05:52.289Z,75396.53
2022-08-03T20:08:22.215Z,75402.50
2022-08-03T20:10:49.505Z,75408.47
2022-08-03T20:13:19.380Z,75418.38
2022-08-03T20:15:46.533Z,75422.34
2022-08-03T20:18:17.013Z,75432.28
2022-08-03T20:20:48.267Z,75440.25
2022-08-03T20:23:19.443Z,75444.22
2022-08-03T20:25:59.192Z,75452.16
2022-08-03T20:28:31.455Z,75456.13
2022-08-03T20:30:59.901Z,75454.16
2022-08-03T20:33:27.867Z,75466.06
2022-08-03T20:36:12.664Z,75474.00
2022-08-03T20:38:46.893Z,75487.91
2022-08-03T20:41:14.511Z,75499.84
2022-08-03T20:43:41.565Z,75499.84
2022-08-03T20:46:29.691Z,75501.81
2022-08-03T20:48:57.248Z,75515.72
2022-08-03T20:51:50.068Z,75527.66
2022-08-03T20:54:28.948Z,75537.59
2022-08-03T20:56:57.991Z,75543.53
2022-08-03T20:59:29.037Z,75545.53
2022-08-03T21:01:57.112Z,75557.44
2022-08-03T21:04:24.036Z,75557.44
2022-08-03T21:07:02.640Z,75561.41
2022-08-03T21:10:04.239Z,75563.41
2022-08-03T21:12:45.927Z,75561.41
2022-08-03T21:13:10.335Z,75062.81
2022-08-03T21:16:02.376Z,75563.41
2022-08-03T21:18:09.479Z,75573.34
2022-08-03T21:20:36.363Z,75587.25
2022-08-03T21:23:03.587Z,75583.28
2022-08-03T21:25:32.991Z,75591.22
2022-08-03T21:28:00.950Z,75597.19
2022-08-03T21:30:30.245Z,75597.19
2022-08-03T21:32:58.211Z,75603.13
2022-08-03T21:35:25.134Z,75613.06
2022-08-03T21:38:12.251Z,75621.03
2022-08-03T21:40:40.612Z,75628.97
2022-08-03T21:43:07.956Z,75634.94
2022-08-03T21:45:46.956Z,75642.88
2022-08-03T21:48:14.271Z,75642.88
2022-08-03T21:50:42.523Z,75644.84
2022-08-03T21:53:10.618Z,75650.81
2022-08-03T21:55:42.358Z,75656.78
2022-08-03T21:58:13.743Z,75670.69
2022-08-03T22:00:43.157Z,75676.66
2022-08-03T22:05:44.480Z,75684.59
2022-08-03T22:08:13.582Z,75692.53
2022-08-03T22:10:43.187Z,75694.53
2022-08-03T22:13:09.814Z,75700.47
2022-08-03T22:15:36.372Z,75704.47
2022-08-03T22:18:04.227Z,75698.50
2022-08-03T22:20:31.021Z,75698.50
2022-08-03T22:23:02.553Z,75704.47
2022-08-03T22:25:32.897Z,75694.53
2022-08-03T22:28:02.991Z,75700.47
2022-08-03T22:30:31.617Z,75702.47
2022-08-03T22:33:00.245Z,75698.50
2022-08-03T22:35:28.470Z,75702.47
2022-08-03T22:37:58.361Z,75698.50
2022-08-03T22:40:26.427Z,75700.47
2022-08-03T22:42:54.394Z,75710.41
2022-08-03T22:46:07.385Z,75708.44
2022-08-03T22:48:08.655Z,75706.44
2022-08-03T22:50:35.540Z,75704.47
2022-08-03T22:53:02.807Z,75710.41
2022-08-03T22:55:29.544Z,75710.41
2022-08-03T22:57:56.540Z,75708.44
2022-08-03T23:00:23.781Z,75716.38
2022-08-03T23:02:51.776Z,75720.34
2022-08-03T23:06:02.022Z,75728.31
2022-08-03T23:08:15.219Z,75736.25
2022-08-03T23:10:46.810Z,75736.25
2022-08-03T23:13:16.357Z,75748.16
2022-08-03T23:18:20.855Z,75762.06
2022-08-03T23:20:51.601Z,75762.06
2022-08-03T23:23:19.835Z,75762.06
2022-08-03T23:25:47.912Z,75760.09
2022-08-03T23:28:16.378Z,75752.13
2022-08-03T23:30:44.610Z,75770.03
2022-08-03T23:33:13.694Z,75779.94
2022-08-03T23:36:28.015Z,75783.94
2022-08-03T23:38:48.551Z,75797.84
2022-08-03T23:41:17.549Z,75803.78
2022-08-03T23:43:53.615Z,75805.78
2022-08-03T23:46:25.758Z,75813.72
2022-08-03T23:48:53.889Z,75823.66
2022-08-03T23:51:57.513Z,75827.63
2022-08-03T23:54:40.345Z,75833.59
2022-08-03T23:57:31.553Z,75839.56
